ADDS TAF Board (Experimental) INFO

IDs: Format: Expanded Condensed

Updated at: 0911 UTC 28 Jan 2015

KCVG - Cincinnati Intl, KY, US

Issued at 0904 UTC 28 Jan 2015
Time0852Z28/10Z28/11Z28/12Z28/13Z28/14Z28/15Z28/16Z28/17Z28/18Z28/19Z28/20Z28/21Z28/22Z
TypeOBSPRVLPRVLPRVLPRVLPRVLPRVLPRVLPRVLPRVLPRVLPRVLPRVLPRVL
VIS5555>6>6>6>6>6>6>6>6>6>6
CIG------------------------200200
CoverCLRSKCSKCSKCSCTSCTSCTSCTSCTSCTSCTSCTOVCOVC
FltCatMVFRMVFRMVFRMVFRVFRVFRVFRVFRVFRVFRVFRVFRVFRVFR
WXBRBRBRBR--------------------
WDirVRBVRBVRBVRB140140140140140140140140130130
WSpd02225555555588
WGst----------------------------
R09/27
XWndVRBVRBVRBVRB-4-4-4-4-4-4-4-4-5-5
HWndVRBVRBVRBVRB3333333366
R18/36
XWndVRBVRBVRBVRB3333333366
HWndVRBVRBVRBVRB4444444455
Raw TAF
KCVG 280904Z 2809/2912 VRB02KT 5SM BR SKC
  FM281300 14005KT P6SM SCT250
  FM282100 13008KT P6SM OVC200
  FM290900 17011KT P6SM BKN060 OVC120


Raw METAR
KCVG 280852Z 00000KT 5SM BR CLR M09/M12 A3028 RMK AO2 SLP265 T10941117 53014

TAF Board Legend

Hazard VFR MVFR IFR LIFR
Visibility (sm) >5 3≤X≤5 1≤X<3 <1
Ceiling (100 ft) >30 10≤X≤30 5≤X<10 <5
Wind Speed (kt) <10 10≤X<20 20≤X<30 ≥30
Wind Gust (kt) <15 15≤X<25 25≤X<35 ≥35
Weather No Wx Reported VCTS,-TS,-FZRA TS,FZRA +TS,+FZRA


Page loaded:  09:11 UTC  |   01:11 AM Pacific  |   02:11 AM Mountain  |   03:11 AM Central  |   04:11 AM Eastern

 

ADVISORIES

FORECASTS

FORECASTS

OBSERVATIONS

USER TOOLS

ABOUT US